createdAt,value
2023-04-28T00:00:21.715Z,96295.59
2023-04-28T00:02:50.735Z,96299.75
2023-04-28T00:05:20.410Z,96293.84
2023-04-28T00:07:49.116Z,96293.84
2023-04-28T00:10:19.811Z,96280.59
2023-04-28T00:12:48.583Z,96282.25
2023-04-28T00:15:17.821Z,96279.88
2023-04-28T00:17:46.688Z,96280.25
2023-04-28T00:20:15.688Z,96286.09
2023-04-28T00:22:44.555Z,96276.16
2023-04-28T00:25:14.165Z,96282.06
2023-04-28T00:27:44.356Z,96285.44
2023-04-28T00:30:16.501Z,96284.00
2023-04-28T00:32:45.506Z,96282.38
2023-04-28T00:35:14.413Z,96279.78
2023-04-28T00:37:43.558Z,96274.59
2023-04-28T00:40:13.564Z,96267.88
2023-04-28T00:42:43.621Z,96270.41
2023-04-28T00:45:12.980Z,96266.16
2023-04-28T00:47:41.770Z,96266.16
2023-04-28T00:50:11.677Z,96261.09
2023-04-28T00:52:40.860Z,96268.03
2023-04-28T00:55:11.046Z,96261.56
2023-04-28T00:57:39.973Z,96268.22
2023-04-28T01:00:11.604Z,96264.09
2023-04-28T01:02:40.427Z,96269.16
2023-04-28T01:05:13.246Z,96255.78
2023-04-28T01:07:41.927Z,96256.72
2023-04-28T01:10:11.549Z,96246.09
2023-04-28T01:12:40.134Z,96256.47
2023-04-28T01:15:15.509Z,96255.69
2023-04-28T01:17:44.342Z,96252.56
2023-04-28T01:20:13.983Z,96259.09
2023-04-28T01:22:42.816Z,96261.72
2023-04-28T01:25:12.859Z,96259.09
2023-04-28T01:27:41.400Z,96252.91
2023-04-28T01:30:11.316Z,96260.50
2023-04-28T01:32:40.108Z,96259.69
2023-04-28T01:35:09.504Z,96257.00
2023-04-28T01:37:38.330Z,96249.63
2023-04-28T01:40:08.325Z,96255.34
2023-04-28T01:42:38.340Z,96258.97
2023-04-28T01:45:08.392Z,96252.25
2023-04-28T01:47:37.062Z,96251.50
2023-04-28T01:50:07.686Z,96253.69
2023-04-28T01:52:36.455Z,96242.06
2023-04-28T01:55:05.954Z,96236.31
2023-04-28T01:57:36.131Z,96238.06
2023-04-28T02:00:07.990Z,96230.75
2023-04-28T02:02:37.372Z,96232.41
2023-04-28T02:05:06.998Z,96237.53
2023-04-28T02:07:35.466Z,96235.00
2023-04-28T02:10:04.587Z,96232.47
2023-04-28T02:12:32.944Z,96236.06
2023-04-28T02:15:01.631Z,96225.94
2023-04-28T02:17:33.350Z,96230.25
2023-04-28T02:20:02.215Z,96228.38
2023-04-28T02:22:31.054Z,96236.16
2023-04-28T02:25:01.619Z,96218.53
2023-04-28T02:27:30.888Z,96221.06
2023-04-28T02:29:59.553Z,96223.69
2023-04-28T02:32:28.587Z,96223.75
2023-04-28T02:34:58.898Z,96213.78
2023-04-28T02:37:27.793Z,96212.97
2023-04-28T02:39:56.493Z,96214.03
2023-04-28T02:42:25.492Z,96211.72
2023-04-28T02:44:54.227Z,96213.59
2023-04-28T02:47:26.003Z,96206.97
2023-04-28T02:49:55.318Z,96206.13
2023-04-28T02:52:25.723Z,96207.84
2023-04-28T02:54:58.069Z,96207.13
2023-04-28T02:57:27.267Z,96214.66
2023-04-28T02:59:56.506Z,96214.88
2023-04-28T03:02:25.848Z,96224.22
2023-04-28T03:04:55.320Z,96221.00
2023-04-28T03:07:25.609Z,96221.81
2023-04-28T03:09:54.654Z,96216.72
2023-04-28T03:12:23.660Z,96220.25
2023-04-28T03:14:52.378Z,96223.75
2023-04-28T03:17:21.381Z,96217.81
2023-04-28T03:19:50.454Z,96216.16
2023-04-28T03:22:19.449Z,96226.53
2023-04-28T03:24:49.800Z,96220.72
2023-04-28T03:27:18.778Z,96226.81
2023-04-28T03:29:47.521Z,96211.75
2023-04-28T03:32:16.412Z,96209.22
2023-04-28T03:34:45.720Z,96209.22
2023-04-28T03:37:14.461Z,96209.97
2023-04-28T03:39:43.333Z,96216.69
2023-04-28T03:42:13.828Z,96220.13
2023-04-28T03:44:42.788Z,96220.13
2023-04-28T03:47:11.714Z,96222.56
2023-04-28T03:49:40.789Z,96212.94
2023-04-28T03:52:09.685Z,96204.38
2023-04-28T03:54:39.988Z,96200.84
2023-04-28T03:57:08.564Z,96199.22
2023-04-28T03:59:39.089Z,96195.78
2023-04-28T04:02:07.779Z,96196.78
2023-04-28T04:04:36.483Z,96194.91
2023-04-28T04:07:05.309Z,96189.75
2023-04-28T04:09:33.994Z,96179.78
2023-04-28T04:12:02.647Z,96187.97
2023-04-28T04:14:31.452Z,96184.31
2023-04-28T04:17:01.804Z,96182.41
2023-04-28T04:19:30.672Z,96175.78
2023-04-28T04:21:59.497Z,96179.88
2023-04-28T04:24:28.478Z,96181.53
2023-04-28T04:26:59.552Z,96172.44
2023-04-28T04:29:29.160Z,96174.97
2023-04-28T04:31:58.092Z,96171.38
2023-04-28T04:34:28.545Z,96166.81
2023-04-28T04:36:57.430Z,96166.50
2023-04-28T04:39:26.380Z,96172.97
2023-04-28T04:41:55.143Z,96165.78
2023-04-28T04:44:24.229Z,96179.06
2023-04-28T04:46:56.345Z,96164.97
2023-04-28T04:49:25.136Z,96178.53
2023-04-28T04:51:55.457Z,96179.78
2023-04-28T04:54:24.573Z,96174.41
2023-04-28T04:56:53.762Z,96180.44
2023-04-28T04:59:23.058Z,96175.13
2023-04-28T05:01:51.847Z,96169.53
2023-04-28T05:04:21.086Z,96163.97
2023-04-28T05:06:50.710Z,96162.81
2023-04-28T05:09:23.251Z,96163.03
2023-04-28T05:11:52.166Z,96163.91
2023-04-28T05:14:21.083Z,96164.19
2023-04-28T05:16:50.394Z,96162.22
2023-04-28T05:19:21.991Z,96165.06
2023-04-28T05:21:54.140Z,96157.59
2023-04-28T05:24:24.918Z,96175.94
2023-04-28T05:26:54.443Z,96163.34
2023-04-28T05:29:23.221Z,96162.19
2023-04-28T05:31:52.734Z,96146.47
2023-04-28T05:34:21.772Z,96147.66
2023-04-28T05:36:53.808Z,96150.84
2023-04-28T05:39:23.845Z,96151.66
2023-04-28T05:41:52.941Z,96151.84
2023-04-28T05:44:21.826Z,96149.03
2023-04-28T05:46:50.629Z,96154.66
2023-04-28T05:49:20.101Z,96162.78
2023-04-28T05:51:49.601Z,96165.91
2023-04-28T05:54:18.597Z,96176.69
2023-04-28T05:56:49.358Z,96170.22
2023-04-28T05:59:18.809Z,96172.91
2023-04-28T06:01:47.616Z,96165.63
2023-04-28T06:04:16.921Z,96155.88
2023-04-28T06:06:45.943Z,96150.19
2023-04-28T06:09:14.961Z,96151.59
2023-04-28T06:11:44.096Z,96151.94
2023-04-28T06:14:14.403Z,96147.97
2023-04-28T06:16:43.562Z,96138.41
2023-04-28T06:19:21.226Z,96144.56
2023-04-28T06:21:52.057Z,96145.97
2023-04-28T06:24:21.200Z,96137.13
2023-04-28T06:26:50.238Z,96138.25
2023-04-28T06:29:20.772Z,96135.53
2023-04-28T06:31:50.025Z,96136.75
2023-04-28T06:34:18.930Z,96125.44
2023-04-28T06:36:48.231Z,96108.56
2023-04-28T06:39:17.063Z,96115.41
2023-04-28T06:41:45.760Z,96111.28
2023-04-28T06:44:15.023Z,96106.66
2023-04-28T06:46:45.098Z,96103.38
2023-04-28T06:49:15.417Z,96105.22
2023-04-28T06:51:44.161Z,96102.31
2023-04-28T06:54:12.530Z,96097.97
2023-04-28T06:56:41.511Z,96101.84
2023-04-28T06:59:10.119Z,96092.66
2023-04-28T07:01:39.261Z,96092.25
2023-04-28T07:04:09.721Z,96090.84
2023-04-28T07:06:38.148Z,96084.47
2023-04-28T07:09:06.956Z,96089.00
2023-04-28T07:11:35.786Z,96094.34
2023-04-28T07:14:04.193Z,96092.00
2023-04-28T07:16:32.996Z,96096.28
2023-04-28T07:19:01.569Z,96090.91
2023-04-28T07:21:32.084Z,96090.88
2023-04-28T07:24:00.699Z,96090.25
2023-04-28T07:26:31.707Z,96088.53
2023-04-28T07:29:00.470Z,96087.47
2023-04-28T07:31:29.400Z,96088.69
2023-04-28T07:33:58.566Z,96096.84
2023-04-28T07:36:27.353Z,96091.78
2023-04-28T07:38:57.371Z,96085.66
2023-04-28T07:41:28.103Z,96077.34
2023-04-28T07:43:56.983Z,96076.31
2023-04-28T07:46:25.490Z,96076.13
2023-04-28T07:48:55.539Z,96065.72
2023-04-28T07:51:24.215Z,96064.25
2023-04-28T07:53:53.374Z,96072.38
2023-04-28T07:56:23.449Z,96060.19
2023-04-28T07:58:52.819Z,96054.19
2023-04-28T08:01:21.335Z,96045.19
2023-04-28T08:03:53.030Z,96040.72
2023-04-28T08:06:22.191Z,96046.03
2023-04-28T08:08:51.288Z,96044.88
2023-04-28T08:11:20.364Z,96039.63
2023-04-28T08:13:51.124Z,96019.06
2023-04-28T08:16:22.804Z,96034.63
2023-04-28T08:18:55.458Z,96039.69
2023-04-28T08:21:24.090Z,96028.03
2023-04-28T08:23:53.296Z,96038.97
2023-04-28T08:26:22.526Z,96037.84
2023-04-28T08:28:52.458Z,96039.50
2023-04-28T08:31:22.131Z,96034.84
2023-04-28T08:33:52.194Z,96036.53
2023-04-28T08:36:21.507Z,96023.28
2023-04-28T08:38:50.287Z,96031.75
2023-04-28T08:41:20.001Z,96024.13
2023-04-28T08:43:49.020Z,96026.97
2023-04-28T08:46:20.296Z,96023.75
2023-04-28T08:48:51.244Z,96026.88
2023-04-28T08:51:28.823Z,96031.00
2023-04-28T08:54:18.897Z,96030.91
2023-04-28T08:56:49.531Z,96024.31
2023-04-28T08:59:18.530Z,96023.09
2023-04-28T09:01:50.703Z,96020.69
2023-04-28T09:04:20.272Z,96021.06
2023-04-28T09:06:49.988Z,96016.78
2023-04-28T09:09:25.340Z,96011.34
2023-04-28T09:12:00.306Z,96008.31
2023-04-28T09:14:31.628Z,96004.28
2023-04-28T09:17:02.111Z,95996.16
2023-04-28T09:19:36.425Z,95987.00
2023-04-28T09:22:18.218Z,95982.59
2023-04-28T09:24:55.732Z,95999.25
2023-04-28T09:27:30.189Z,95994.91
2023-04-28T09:29:59.136Z,95989.72
2023-04-28T09:32:29.954Z,95982.94
2023-04-28T09:34:59.966Z,95986.63
2023-04-28T09:37:31.357Z,95960.06
2023-04-28T09:40:08.996Z,95971.72
2023-04-28T09:42:39.348Z,95976.44
2023-04-28T09:45:09.644Z,95963.78
2023-04-28T09:47:41.481Z,95966.69
2023-04-28T09:50:15.417Z,95969.47
2023-04-28T09:52:46.240Z,95974.00
2023-04-28T09:55:15.490Z,95974.97
2023-04-28T09:57:49.328Z,95970.28
2023-04-28T10:00:18.937Z,95969.56
2023-04-28T10:02:51.969Z,95970.06
2023-04-28T10:05:20.920Z,95974.38
2023-04-28T10:07:50.510Z,95964.06
2023-04-28T10:10:22.804Z,95958.47
2023-04-28T10:12:53.088Z,95952.69
2023-04-28T10:15:22.570Z,95953.28
2023-04-28T10:17:53.751Z,95952.06
2023-04-28T10:20:25.816Z,95944.09
2023-04-28T10:23:02.083Z,95946.53
2023-04-28T10:25:33.609Z,95940.13
2023-04-28T10:28:06.111Z,95934.00
2023-04-28T10:30:35.944Z,95937.41
2023-04-28T10:33:28.047Z,95934.16
2023-04-28T10:36:00.269Z,95936.63
2023-04-28T10:38:29.074Z,95922.13
2023-04-28T10:41:05.847Z,95921.34
2023-04-28T10:43:40.882Z,95918.44
2023-04-28T10:46:12.031Z,95915.53
2023-04-28T10:49:09.215Z,95902.91
2023-04-28T10:51:38.373Z,95894.41
2023-04-28T10:54:18.443Z,95901.78
2023-04-28T10:57:22.107Z,95890.94
2023-04-28T10:59:54.558Z,95891.47
2023-04-28T11:02:44.886Z,95909.75
2023-04-28T11:05:22.037Z,95895.38
2023-04-28T11:08:33.621Z,95905.38
2023-04-28T11:11:23.054Z,95896.06
2023-04-28T11:13:52.970Z,95902.66
2023-04-28T11:16:24.219Z,95904.03
2023-04-28T11:18:59.406Z,95911.78
2023-04-28T11:21:30.496Z,95917.13
2023-04-28T11:24:00.227Z,95911.97
2023-04-28T11:26:30.572Z,95910.97
2023-04-28T11:28:59.824Z,95915.53
2023-04-28T11:31:29.021Z,95912.94
2023-04-28T11:34:02.409Z,95924.44
2023-04-28T11:36:35.960Z,95915.25
2023-04-28T11:39:08.197Z,95915.72
2023-04-28T11:41:37.543Z,95912.34
2023-04-28T11:44:15.692Z,95924.41
2023-04-28T11:46:51.205Z,95918.78
2023-04-28T11:49:21.490Z,95917.78
2023-04-28T11:51:52.961Z,95924.56
2023-04-28T11:54:26.023Z,95920.84
2023-04-28T11:56:56.242Z,95922.94
2023-04-28T11:59:27.177Z,95916.97
2023-04-28T12:01:57.501Z,95922.59
2023-04-28T12:04:30.844Z,95924.06
2023-04-28T12:07:06.486Z,95922.16
2023-04-28T12:09:36.048Z,95926.84
2023-04-28T12:12:06.126Z,95927.16
2023-04-28T12:14:36.313Z,95928.53
2023-04-28T12:17:05.708Z,95932.53
2023-04-28T12:19:46.504Z,95940.88
2023-04-28T12:22:17.947Z,95942.31
2023-04-28T12:24:47.363Z,95942.34
2023-04-28T12:27:21.925Z,95945.97
2023-04-28T12:29:51.331Z,95942.88
2023-04-28T12:32:20.603Z,95942.06
2023-04-28T12:34:50.969Z,95945.00
2023-04-28T12:37:22.885Z,95936.50
2023-04-28T12:39:52.839Z,95938.69
2023-04-28T12:42:23.098Z,95946.78
2023-04-28T12:44:52.146Z,95952.31
2023-04-28T12:47:21.406Z,95951.50
2023-04-28T12:49:52.410Z,95953.13
2023-04-28T12:52:23.283Z,95956.81
2023-04-28T12:54:51.823Z,95951.28
2023-04-28T12:57:21.422Z,95956.13
2023-04-28T12:59:50.589Z,95959.13
2023-04-28T13:02:19.641Z,95945.66
2023-04-28T13:04:48.312Z,95958.66
2023-04-28T13:07:17.692Z,95936.00
2023-04-28T13:09:48.619Z,95952.06
2023-04-28T13:12:17.820Z,95949.94
2023-04-28T13:14:46.183Z,95953.94
2023-04-28T13:17:15.748Z,95949.69
2023-04-28T13:19:45.016Z,95953.88
2023-04-28T13:22:13.975Z,95956.25
2023-04-28T13:24:43.194Z,95946.50
2023-04-28T13:27:13.802Z,95952.09
2023-04-28T13:29:42.210Z,95949.59
2023-04-28T13:32:11.184Z,95944.69
2023-04-28T13:34:40.363Z,95943.94
2023-04-28T13:37:08.991Z,95938.84
2023-04-28T13:39:37.765Z,95939.00
2023-04-28T13:42:07.526Z,95939.94
2023-04-28T13:44:37.752Z,95939.28
2023-04-28T13:47:09.432Z,95937.09
2023-04-28T13:49:40.045Z,95948.09
2023-04-28T13:52:09.473Z,95936.84
2023-04-28T13:54:38.606Z,95935.09
2023-04-28T13:57:07.658Z,95932.66
2023-04-28T13:59:37.907Z,95921.66
2023-04-28T14:02:09.871Z,95921.53
2023-04-28T14:04:39.324Z,95910.66
2023-04-28T14:07:08.291Z,95911.34
2023-04-28T14:09:37.314Z,95917.31
2023-04-28T14:12:06.625Z,95908.50
2023-04-28T14:14:36.414Z,95908.47
2023-04-28T14:17:07.295Z,95913.03
2023-04-28T14:19:36.479Z,95900.44
2023-04-28T14:22:05.214Z,95898.97
2023-04-28T14:24:33.850Z,95912.78
2023-04-28T14:27:02.404Z,95925.19
2023-04-28T14:29:31.577Z,95915.78
2023-04-28T14:32:01.474Z,95890.94
2023-04-28T14:34:32.224Z,95898.25
2023-04-28T14:37:01.562Z,95901.53
2023-04-28T14:39:31.051Z,95911.56
2023-04-28T14:41:59.816Z,95914.69
2023-04-28T14:44:29.009Z,95906.31
2023-04-28T14:46:57.892Z,95834.94
2023-04-28T14:49:32.225Z,95892.50
2023-04-28T14:52:02.867Z,95891.56
2023-04-28T14:54:32.553Z,95884.66
2023-04-28T14:57:01.630Z,95876.53
2023-04-28T14:59:30.199Z,95871.94
2023-04-28T15:01:59.555Z,95869.50
2023-04-28T15:04:31.499Z,95861.09
2023-04-28T15:07:02.586Z,95870.44
2023-04-28T15:09:31.274Z,95869.50
2023-04-28T15:12:01.057Z,95877.63
2023-04-28T15:14:30.105Z,95880.59
2023-04-28T15:16:58.663Z,95882.06
2023-04-28T15:19:27.857Z,95880.84
2023-04-28T15:21:57.076Z,95876.94
2023-04-28T15:24:32.583Z,95885.19
2023-04-28T15:27:04.298Z,95876.84
2023-04-28T15:29:33.955Z,95873.88
2023-04-28T15:32:02.642Z,95865.88
2023-04-28T15:34:31.595Z,95868.81
2023-04-28T15:37:01.138Z,95873.81
2023-04-28T15:39:34.011Z,95877.38
2023-04-28T15:42:04.295Z,95878.47
2023-04-28T15:44:32.896Z,95871.69
2023-04-28T15:47:02.560Z,95867.75
2023-04-28T15:49:31.482Z,95860.88
2023-04-28T15:52:00.724Z,95863.69
2023-04-28T15:54:31.661Z,95855.47
2023-04-28T15:57:00.926Z,95861.97
2023-04-28T15:59:31.420Z,95855.19
2023-04-28T16:02:01.604Z,95833.44
2023-04-28T16:04:33.591Z,95842.75
2023-04-28T16:07:02.896Z,95844.66
2023-04-28T16:09:33.914Z,95844.13
2023-04-28T16:12:04.585Z,95843.59
2023-04-28T16:14:36.772Z,95834.94
2023-04-28T16:17:05.906Z,95825.34
2023-04-28T16:19:34.926Z,95832.22
2023-04-28T16:22:03.586Z,95823.84
2023-04-28T16:24:34.269Z,95823.03
2023-04-28T16:27:03.782Z,95831.16
2023-04-28T16:29:32.975Z,95823.88
2023-04-28T16:32:02.187Z,95824.13
2023-04-28T16:34:33.314Z,95822.81
2023-04-28T16:37:02.960Z,95826.72
2023-04-28T16:39:34.830Z,95826.72
2023-04-28T16:42:04.098Z,95828.91
2023-04-28T16:44:32.550Z,95832.28
2023-04-28T16:47:02.082Z,95826.31
2023-04-28T16:49:30.344Z,95819.69
2023-04-28T16:51:59.826Z,95815.13
2023-04-28T16:54:28.707Z,95804.97
2023-04-28T16:56:59.439Z,95810.66
2023-04-28T16:59:29.889Z,95824.97
2023-04-28T17:01:58.889Z,95815.50
2023-04-28T17:04:28.143Z,95810.38
2023-04-28T17:06:58.470Z,95813.09
2023-04-28T17:09:27.772Z,95826.88
2023-04-28T17:11:56.893Z,95819.28
2023-04-28T17:14:27.676Z,95821.06
2023-04-28T17:16:56.802Z,95809.16
2023-04-28T17:19:26.303Z,95805.91
2023-04-28T17:21:55.909Z,95810.25
2023-04-28T17:24:24.963Z,95811.31
2023-04-28T17:26:53.509Z,95808.88
2023-04-28T17:29:23.763Z,95812.66
2023-04-28T17:31:57.601Z,95792.28
2023-04-28T17:34:26.284Z,95792.56
2023-04-28T17:36:55.426Z,95786.34
2023-04-28T17:39:24.174Z,95781.47
2023-04-28T17:41:53.196Z,95782.41
2023-04-28T17:44:22.391Z,95783.38
2023-04-28T17:46:51.348Z,95781.72
2023-04-28T17:49:21.637Z,95785.66
2023-04-28T17:51:50.449Z,95796.03
2023-04-28T17:54:19.497Z,95799.56
2023-04-28T17:56:48.496Z,95769.94
2023-04-28T17:59:17.429Z,95799.84
2023-04-28T18:01:46.743Z,95800.78
2023-04-28T18:04:15.725Z,95804.97
2023-04-28T18:06:46.530Z,95801.72
2023-04-28T18:09:15.375Z,95797.94
2023-04-28T18:11:44.646Z,95764.00
2023-04-28T18:14:15.721Z,95787.94
2023-04-28T18:16:44.840Z,95805.91
2023-04-28T18:19:14.277Z,95810.34
2023-04-28T18:21:43.165Z,95804.41
2023-04-28T18:24:13.712Z,95801.19
2023-04-28T18:26:42.577Z,95812.66
2023-04-28T18:29:11.744Z,95830.88
2023-04-28T18:31:42.209Z,95824.25
2023-04-28T18:34:11.224Z,95827.78
2023-04-28T18:36:40.087Z,95815.06
2023-04-28T18:39:10.373Z,95826.41
2023-04-28T18:41:40.785Z,95809.88
2023-04-28T18:44:10.052Z,95830.97
2023-04-28T18:46:40.124Z,95820.72
2023-04-28T18:49:10.594Z,95817.38
2023-04-28T18:51:39.503Z,95816.81
2023-04-28T18:54:08.532Z,95821.94
2023-04-28T18:56:38.122Z,95826.25
2023-04-28T18:59:09.241Z,95827.06
2023-04-28T19:01:40.664Z,95820.97
2023-04-28T19:04:10.519Z,95823.56
2023-04-28T19:06:39.987Z,95823.28
2023-04-28T19:09:09.858Z,95815.44
2023-04-28T19:11:38.935Z,95823.00
2023-04-28T19:14:09.992Z,95816.41
2023-04-28T19:16:39.464Z,95823.56
2023-04-28T19:19:09.677Z,95819.75
2023-04-28T19:21:45.233Z,95798.94
2023-04-28T19:24:14.055Z,95773.78
2023-04-28T19:26:43.254Z,95814.47
2023-04-28T19:29:17.396Z,95818.09
2023-04-28T19:31:46.268Z,95822.56
2023-04-28T19:34:15.707Z,95820.25
2023-04-28T19:36:45.119Z,95832.13
2023-04-28T19:39:17.907Z,95819.06
2023-04-28T19:41:47.811Z,95813.91
2023-04-28T19:44:18.560Z,95808.53
2023-04-28T19:46:47.395Z,95810.16
2023-04-28T19:49:18.121Z,95810.03
2023-04-28T19:51:46.952Z,95807.72
2023-04-28T19:54:16.770Z,95814.97
2023-04-28T19:56:45.935Z,95810.94
2023-04-28T19:59:15.115Z,95821.06
2023-04-28T20:01:46.092Z,95820.25
2023-04-28T20:04:15.660Z,95828.47
2023-04-28T20:06:44.789Z,95820.78
2023-04-28T20:09:14.135Z,95828.47
2023-04-28T20:11:42.922Z,95818.06
2023-04-28T20:14:12.222Z,95815.66
2023-04-28T20:16:41.659Z,95810.38
2023-04-28T20:19:13.220Z,95819.31
2023-04-28T20:21:42.561Z,95821.75
2023-04-28T20:24:12.613Z,95822.56
2023-04-28T20:26:42.128Z,95827.69
2023-04-28T20:29:15.918Z,95821.06
2023-04-28T20:31:44.625Z,95819.59
2023-04-28T20:34:15.457Z,95825.63
2023-04-28T20:36:44.168Z,95826.47
2023-04-28T20:39:13.277Z,95818.63
2023-04-28T20:41:42.220Z,95815.09
2023-04-28T20:44:12.112Z,95812.69
2023-04-28T20:46:41.550Z,95817.69
2023-04-28T20:49:11.318Z,95815.25
2023-04-28T20:51:45.394Z,95814.13
2023-04-28T20:54:14.085Z,95807.94
2023-04-28T20:56:43.556Z,95801.88
2023-04-28T20:59:11.949Z,95797.00
2023-04-28T21:01:41.261Z,95797.53
2023-04-28T21:04:10.296Z,95800.09
2023-04-28T21:06:40.844Z,95813.59
2023-04-28T21:09:10.395Z,95804.84
2023-04-28T21:11:39.419Z,95816.84
2023-04-28T21:14:08.720Z,95809.28
2023-04-28T21:16:37.750Z,95816.03
2023-04-28T21:19:06.860Z,95807.25
2023-04-28T21:21:35.658Z,95804.69
2023-04-28T21:24:08.344Z,95801.88
2023-04-28T21:26:37.458Z,95814.97
2023-04-28T21:29:06.543Z,95810.34
2023-04-28T21:31:35.500Z,95805.53
2023-04-28T21:34:04.038Z,95809.97
2023-04-28T21:36:33.747Z,95819.41
2023-04-28T21:39:05.037Z,95815.91
2023-04-28T21:41:35.457Z,95812.66
2023-04-28T21:44:04.745Z,95810.09
2023-04-28T21:46:34.430Z,95804.00
2023-04-28T21:49:03.524Z,95803.22
2023-04-28T21:51:32.941Z,95811.00
2023-04-28T21:54:03.014Z,95807.53
2023-04-28T21:56:32.298Z,95826.53
2023-04-28T21:59:03.449Z,95818.97
2023-04-28T22:01:32.574Z,95813.84
2023-04-28T22:04:02.645Z,95816.28
2023-04-28T22:06:32.841Z,95810.88
2023-04-28T22:09:02.104Z,95813.56
2023-04-28T22:11:30.779Z,95805.19
2023-04-28T22:13:59.509Z,95804.13
2023-04-28T22:16:30.079Z,95800.59
2023-04-28T22:18:58.972Z,95804.00
2023-04-28T22:21:28.768Z,95812.47
2023-04-28T22:23:58.371Z,95799.41
2023-04-28T22:26:27.113Z,95797.78
2023-04-28T22:28:56.485Z,95791.16
2023-04-28T22:31:25.541Z,95793.34
2023-04-28T22:33:56.527Z,95795.91
2023-04-28T22:36:25.428Z,95798.47
2023-04-28T22:38:54.596Z,95797.63
2023-04-28T22:41:24.776Z,95811.28
2023-04-28T22:43:53.572Z,95805.59
2023-04-28T22:46:22.287Z,95802.91
2023-04-28T22:48:51.346Z,95805.59
2023-04-28T22:51:21.771Z,95807.34
2023-04-28T22:53:51.035Z,95798.72
2023-04-28T22:56:20.639Z,95789.41
2023-04-28T22:58:49.597Z,95789.94
2023-04-28T23:01:18.691Z,95793.53
2023-04-28T23:03:50.706Z,95796.25
2023-04-28T23:06:21.241Z,95796.09
2023-04-28T23:08:49.949Z,95791.53
2023-04-28T23:11:19.735Z,95782.09
2023-04-28T23:13:48.540Z,95781.28
2023-04-28T23:16:18.069Z,95786.16
2023-04-28T23:18:46.805Z,95783.47
2023-04-28T23:21:15.906Z,95773.47
2023-04-28T23:23:46.662Z,95780.22
2023-04-28T23:26:16.506Z,95777.53
2023-04-28T23:28:45.423Z,95774.00
2023-04-28T23:31:14.030Z,95769.56
2023-04-28T23:33:42.903Z,95772.97
2023-04-28T23:36:16.304Z,95760.28
2023-04-28T23:38:46.777Z,95764.63
2023-04-28T23:41:15.497Z,95753.41
2023-04-28T23:43:44.398Z,95745.44
2023-04-28T23:46:13.530Z,95732.47
2023-04-28T23:48:42.501Z,95742.09
2023-04-28T23:51:11.581Z,95742.50
2023-04-28T23:53:40.646Z,95750.97
2023-04-28T23:56:11.332Z,95742.63
2023-04-28T23:58:40.711Z,95736.97
